sensor_id;sensor_type;location;lat;lon;timestamp;temperature;humidity
21662;DHT22;10992;48.170;8.596;2023-02-25T00:01:35;2.80;99.90
21662;DHT22;10992;48.170;8.596;2023-02-25T00:04:02;2.80;99.90
21662;DHT22;10992;48.170;8.596;2023-02-25T00:06:29;2.80;99.90
21662;DHT22;10992;48.170;8.596;2023-02-25T00:08:56;2.80;99.90
21662;DHT22;10992;48.170;8.596;2023-02-25T00:11:25;2.80;99.90
21662;DHT22;10992;48.170;8.596;2023-02-25T00:13:53;2.80;99.90
21662;DHT22;10992;48.170;8.596;2023-02-25T00:16:22;2.80;99.90
21662;DHT22;10992;48.170;8.596;2023-02-25T00:18:54;2.80;99.90
21662;DHT22;10992;48.170;8.596;2023-02-25T00:21:21;2.90;99.90
21662;DHT22;10992;48.170;8.596;2023-02-25T00:23:49;2.90;99.90
21662;DHT22;10992;48.170;8.596;2023-02-25T00:26:17;2.80;99.90
21662;DHT22;10992;48.170;8.596;2023-02-25T00:28:45;2.80;99.90
21662;DHT22;10992;48.170;8.596;2023-02-25T00:31:15;2.80;99.90
21662;DHT22;10992;48.170;8.596;2023-02-25T00:33:43;2.80;99.90
21662;DHT22;10992;48.170;8.596;2023-02-25T00:36:13;2.70;99.90
21662;DHT22;10992;48.170;8.596;2023-02-25T00:38:41;2.80;99.90
21662;DHT22;10992;48.170;8.596;2023-02-25T00:41:09;2.70;99.90
21662;DHT22;10992;48.170;8.596;2023-02-25T00:43:41;2.80;99.90
21662;DHT22;10992;48.170;8.596;2023-02-25T00:46:12;2.80;99.90
21662;DHT22;10992;48.170;8.596;2023-02-25T00:48:39;2.70;99.90
21662;DHT22;10992;48.170;8.596;2023-02-25T00:51:07;2.70;99.90
21662;DHT22;10992;48.170;8.596;2023-02-25T00:53:34;2.80;99.90
21662;DHT22;10992;48.170;8.596;2023-02-25T00:56:04;2.80;99.90
21662;DHT22;10992;48.170;8.596;2023-02-25T00:58:36;2.70;99.90
21662;DHT22;10992;48.170;8.596;2023-02-25T01:01:05;2.70;99.90
21662;DHT22;10992;48.170;8.596;2023-02-25T01:03:32;2.70;99.90
21662;DHT22;10992;48.170;8.596;2023-02-25T01:05:59;2.80;99.90
21662;DHT22;10992;48.170;8.596;2023-02-25T01:08:26;2.80;99.90
21662;DHT22;10992;48.170;8.596;2023-02-25T01:10:54;2.80;99.90
21662;DHT22;10992;48.170;8.596;2023-02-25T01:13:21;2.80;99.90
21662;DHT22;10992;48.170;8.596;2023-02-25T01:15:48;2.80;99.90
21662;DHT22;10992;48.170;8.596;2023-02-25T01:18:15;2.70;99.90
21662;DHT22;10992;48.170;8.596;2023-02-25T01:20:45;2.70;99.90
21662;DHT22;10992;48.170;8.596;2023-02-25T01:23:12;2.70;99.90
21662;DHT22;10992;48.170;8.596;2023-02-25T01:25:39;2.60;99.90
21662;DHT22;10992;48.170;8.596;2023-02-25T01:28:07;2.60;99.90
21662;DHT22;10992;48.170;8.596;2023-02-25T01:30:35;2.50;99.90
21662;DHT22;10992;48.170;8.596;2023-02-25T01:33:03;2.50;99.90
21662;DHT22;10992;48.170;8.596;2023-02-25T01:35:30;2.50;99.90
21662;DHT22;10992;48.170;8.596;2023-02-25T01:37:57;2.50;99.90
21662;DHT22;10992;48.170;8.596;2023-02-25T01:40:24;2.40;99.90
21662;DHT22;10992;48.170;8.596;2023-02-25T01:42:51;2.40;99.90
21662;DHT22;10992;48.170;8.596;2023-02-25T01:47:49;2.40;99.90
21662;DHT22;10992;48.170;8.596;2023-02-25T01:50:19;2.40;99.90
21662;DHT22;10992;48.170;8.596;2023-02-25T01:52:49;2.40;99.90
21662;DHT22;10992;48.170;8.596;2023-02-25T01:55:17;2.40;99.90
21662;DHT22;10992;48.170;8.596;2023-02-25T01:57:44;2.30;99.90
21662;DHT22;10992;48.170;8.596;2023-02-25T02:00:12;2.40;99.90
21662;DHT22;10992;48.170;8.596;2023-02-25T02:02:46;2.40;99.90
21662;DHT22;10992;48.170;8.596;2023-02-25T02:05:15;2.40;99.90
21662;DHT22;10992;48.170;8.596;2023-02-25T02:07:42;2.40;99.90
21662;DHT22;10992;48.170;8.596;2023-02-25T02:10:10;2.40;99.90
21662;DHT22;10992;48.170;8.596;2023-02-25T02:12:41;2.30;99.90
21662;DHT22;10992;48.170;8.596;2023-02-25T02:15:11;2.20;99.90
21662;DHT22;10992;48.170;8.596;2023-02-25T02:20:20;2.10;99.90
21662;DHT22;10992;48.170;8.596;2023-02-25T02:23:24;2.10;99.90
21662;DHT22;10992;48.170;8.596;2023-02-25T02:29:17;2.10;99.90
21662;DHT22;10992;48.170;8.596;2023-02-25T02:31:59;2.10;99.90
21662;DHT22;10992;48.170;8.596;2023-02-25T02:40:04;2.00;99.90
21662;DHT22;10992;48.170;8.596;2023-02-25T02:45:22;2.00;99.90
21662;DHT22;10992;48.170;8.596;2023-02-25T02:47:59;1.90;99.90
21662;DHT22;10992;48.170;8.596;2023-02-25T02:52:57;2.00;99.90
21662;DHT22;10992;48.170;8.596;2023-02-25T02:55:36;2.00;99.90
21662;DHT22;10992;48.170;8.596;2023-02-25T03:00:47;2.00;99.90
21662;DHT22;10992;48.170;8.596;2023-02-25T03:03:20;2.00;99.90
21662;DHT22;10992;48.170;8.596;2023-02-25T03:05:50;1.90;99.90
21662;DHT22;10992;48.170;8.596;2023-02-25T03:08:26;1.80;99.90
21662;DHT22;10992;48.170;8.596;2023-02-25T03:10:57;1.80;99.90
21662;DHT22;10992;48.170;8.596;2023-02-25T03:13:24;1.80;99.90
21662;DHT22;10992;48.170;8.596;2023-02-25T03:15:52;1.80;99.90
21662;DHT22;10992;48.170;8.596;2023-02-25T03:18:34;1.80;99.90
21662;DHT22;10992;48.170;8.596;2023-02-25T03:21:12;1.80;99.90
21662;DHT22;10992;48.170;8.596;2023-02-25T03:23:42;1.80;99.90
21662;DHT22;10992;48.170;8.596;2023-02-25T03:26:26;1.90;99.90
21662;DHT22;10992;48.170;8.596;2023-02-25T03:28:59;1.90;99.90
21662;DHT22;10992;48.170;8.596;2023-02-25T03:31:41;1.90;99.90
21662;DHT22;10992;48.170;8.596;2023-02-25T03:34:19;2.00;99.90
21662;DHT22;10992;48.170;8.596;2023-02-25T03:36:54;2.00;99.90
21662;DHT22;10992;48.170;8.596;2023-02-25T03:39:28;2.00;99.90
21662;DHT22;10992;48.170;8.596;2023-02-25T03:41:59;2.00;99.90
21662;DHT22;10992;48.170;8.596;2023-02-25T03:44:32;2.00;99.90
21662;DHT22;10992;48.170;8.596;2023-02-25T03:47:00;1.90;99.90
21662;DHT22;10992;48.170;8.596;2023-02-25T03:49:47;1.90;99.90
21662;DHT22;10992;48.170;8.596;2023-02-25T03:52:18;1.90;99.90
21662;DHT22;10992;48.170;8.596;2023-02-25T03:54:50;1.90;99.90
21662;DHT22;10992;48.170;8.596;2023-02-25T03:57:19;1.90;99.90
21662;DHT22;10992;48.170;8.596;2023-02-25T03:59:46;1.80;99.90
21662;DHT22;10992;48.170;8.596;2023-02-25T04:02:15;1.70;99.90
21662;DHT22;10992;48.170;8.596;2023-02-25T04:04:43;1.80;99.90
21662;DHT22;10992;48.170;8.596;2023-02-25T04:07:10;1.70;99.90
21662;DHT22;10992;48.170;8.596;2023-02-25T04:09:37;1.60;99.90
21662;DHT22;10992;48.170;8.596;2023-02-25T04:12:06;1.60;99.90
21662;DHT22;10992;48.170;8.596;2023-02-25T04:14:33;1.50;99.90
21662;DHT22;10992;48.170;8.596;2023-02-25T04:17:00;1.50;99.90
21662;DHT22;10992;48.170;8.596;2023-02-25T04:19:30;1.50;99.90
21662;DHT22;10992;48.170;8.596;2023-02-25T04:21:57;1.40;99.90
21662;DHT22;10992;48.170;8.596;2023-02-25T04:24:26;1.40;99.90
21662;DHT22;10992;48.170;8.596;2023-02-25T04:26:53;1.40;99.90
21662;DHT22;10992;48.170;8.596;2023-02-25T04:29:24;1.40;99.90
21662;DHT22;10992;48.170;8.596;2023-02-25T04:31:51;1.50;99.90
21662;DHT22;10992;48.170;8.596;2023-02-25T04:34:18;1.50;99.90
21662;DHT22;10992;48.170;8.596;2023-02-25T04:36:46;1.60;99.90
21662;DHT22;10992;48.170;8.596;2023-02-25T04:39:14;1.70;99.90
21662;DHT22;10992;48.170;8.596;2023-02-25T04:41:41;1.70;99.90
21662;DHT22;10992;48.170;8.596;2023-02-25T04:44:09;1.70;99.90
21662;DHT22;10992;48.170;8.596;2023-02-25T04:46:40;1.70;99.90
21662;DHT22;10992;48.170;8.596;2023-02-25T04:49:08;1.60;99.90
21662;DHT22;10992;48.170;8.596;2023-02-25T04:51:37;1.70;99.90
21662;DHT22;10992;48.170;8.596;2023-02-25T04:54:05;1.70;99.90
21662;DHT22;10992;48.170;8.596;2023-02-25T04:56:32;1.70;99.90
21662;DHT22;10992;48.170;8.596;2023-02-25T04:58:59;1.70;99.90
21662;DHT22;10992;48.170;8.596;2023-02-25T05:01:26;1.80;99.90
21662;DHT22;10992;48.170;8.596;2023-02-25T05:03:53;1.80;99.90
21662;DHT22;10992;48.170;8.596;2023-02-25T05:06:26;1.80;99.90
21662;DHT22;10992;48.170;8.596;2023-02-25T05:08:54;1.70;99.90
21662;DHT22;10992;48.170;8.596;2023-02-25T05:11:25;1.70;99.90
21662;DHT22;10992;48.170;8.596;2023-02-25T05:13:52;1.70;99.90
21662;DHT22;10992;48.170;8.596;2023-02-25T05:16:23;1.70;99.90
21662;DHT22;10992;48.170;8.596;2023-02-25T05:18:52;1.70;99.90
21662;DHT22;10992;48.170;8.596;2023-02-25T05:21:21;1.70;99.90
21662;DHT22;10992;48.170;8.596;2023-02-25T05:23:50;1.70;99.90
21662;DHT22;10992;48.170;8.596;2023-02-25T05:26:20;1.70;99.90
21662;DHT22;10992;48.170;8.596;2023-02-25T05:28:50;1.70;99.90
21662;DHT22;10992;48.170;8.596;2023-02-25T05:31:17;1.70;99.90
21662;DHT22;10992;48.170;8.596;2023-02-25T05:33:45;1.60;99.90
21662;DHT22;10992;48.170;8.596;2023-02-25T05:36:14;1.60;99.90
21662;DHT22;10992;48.170;8.596;2023-02-25T05:38:41;1.50;99.90
21662;DHT22;10992;48.170;8.596;2023-02-25T05:41:10;1.50;99.90
21662;DHT22;10992;48.170;8.596;2023-02-25T05:43:38;1.40;99.90
21662;DHT22;10992;48.170;8.596;2023-02-25T05:46:06;1.40;99.90
21662;DHT22;10992;48.170;8.596;2023-02-25T05:48:39;1.30;99.90
21662;DHT22;10992;48.170;8.596;2023-02-25T05:51:12;1.30;99.90
21662;DHT22;10992;48.170;8.596;2023-02-25T05:53:39;1.30;99.90
21662;DHT22;10992;48.170;8.596;2023-02-25T05:56:10;1.30;99.90
21662;DHT22;10992;48.170;8.596;2023-02-25T05:58:37;1.20;99.90
21662;DHT22;10992;48.170;8.596;2023-02-25T06:01:13;1.20;99.90
21662;DHT22;10992;48.170;8.596;2023-02-25T06:03:41;1.20;99.90
21662;DHT22;10992;48.170;8.596;2023-02-25T06:06:10;1.10;99.90
21662;DHT22;10992;48.170;8.596;2023-02-25T06:08:42;1.10;99.90
21662;DHT22;10992;48.170;8.596;2023-02-25T06:11:11;1.10;99.90
21662;DHT22;10992;48.170;8.596;2023-02-25T06:13:41;1.10;99.90
21662;DHT22;10992;48.170;8.596;2023-02-25T06:16:08;1.10;99.90
21662;DHT22;10992;48.170;8.596;2023-02-25T06:18:35;1.10;99.90
21662;DHT22;10992;48.170;8.596;2023-02-25T06:21:07;1.20;99.90
21662;DHT22;10992;48.170;8.596;2023-02-25T06:23:37;1.30;99.90
21662;DHT22;10992;48.170;8.596;2023-02-25T06:26:06;1.20;99.90
21662;DHT22;10992;48.170;8.596;2023-02-25T06:28:34;1.20;99.90
21662;DHT22;10992;48.170;8.596;2023-02-25T06:31:02;1.10;99.90
21662;DHT22;10992;48.170;8.596;2023-02-25T06:33:29;1.20;99.90
21662;DHT22;10992;48.170;8.596;2023-02-25T06:35:57;1.20;99.90
21662;DHT22;10992;48.170;8.596;2023-02-25T06:38:24;1.30;99.90
21662;DHT22;10992;48.170;8.596;2023-02-25T06:40:51;1.30;99.90
21662;DHT22;10992;48.170;8.596;2023-02-25T06:43:18;1.20;99.90
21662;DHT22;10992;48.170;8.596;2023-02-25T06:45:45;1.20;99.90
21662;DHT22;10992;48.170;8.596;2023-02-25T06:48:12;1.20;99.90
21662;DHT22;10992;48.170;8.596;2023-02-25T06:50:40;1.20;99.90
21662;DHT22;10992;48.170;8.596;2023-02-25T06:53:08;1.20;99.90
21662;DHT22;10992;48.170;8.596;2023-02-25T06:55:38;1.20;99.90
21662;DHT22;10992;48.170;8.596;2023-02-25T06:58:05;1.20;99.90
21662;DHT22;10992;48.170;8.596;2023-02-25T07:00:32;1.20;99.90
21662;DHT22;10992;48.170;8.596;2023-02-25T07:02:59;1.20;99.90
21662;DHT22;10992;48.170;8.596;2023-02-25T07:05:28;1.30;99.90
21662;DHT22;10992;48.170;8.596;2023-02-25T07:07:56;1.30;99.90
21662;DHT22;10992;48.170;8.596;2023-02-25T07:10:23;1.30;99.90
21662;DHT22;10992;48.170;8.596;2023-02-25T07:12:51;1.30;99.90
21662;DHT22;10992;48.170;8.596;2023-02-25T07:15:19;1.40;99.90
21662;DHT22;10992;48.170;8.596;2023-02-25T07:17:47;1.40;99.90
21662;DHT22;10992;48.170;8.596;2023-02-25T07:20:14;1.40;99.90
21662;DHT22;10992;48.170;8.596;2023-02-25T07:22:42;1.50;99.90
21662;DHT22;10992;48.170;8.596;2023-02-25T07:25:09;1.60;99.90
21662;DHT22;10992;48.170;8.596;2023-02-25T07:27:41;1.70;99.90
21662;DHT22;10992;48.170;8.596;2023-02-25T07:30:11;1.80;99.90
21662;DHT22;10992;48.170;8.596;2023-02-25T07:32:42;1.80;99.90
21662;DHT22;10992;48.170;8.596;2023-02-25T07:35:10;1.70;99.90
21662;DHT22;10992;48.170;8.596;2023-02-25T07:37:38;1.70;99.90
21662;DHT22;10992;48.170;8.596;2023-02-25T07:40:05;1.70;99.90
21662;DHT22;10992;48.170;8.596;2023-02-25T07:42:39;1.70;99.90
21662;DHT22;10992;48.170;8.596;2023-02-25T07:45:08;1.60;99.90
21662;DHT22;10992;48.170;8.596;2023-02-25T07:47:36;1.70;99.90
21662;DHT22;10992;48.170;8.596;2023-02-25T07:50:08;1.70;99.90
21662;DHT22;10992;48.170;8.596;2023-02-25T07:52:38;1.80;99.90
21662;DHT22;10992;48.170;8.596;2023-02-25T07:55:06;1.90;99.90
21662;DHT22;10992;48.170;8.596;2023-02-25T07:57:33;2.00;99.90
21662;DHT22;10992;48.170;8.596;2023-02-25T08:00:01;2.10;99.90
21662;DHT22;10992;48.170;8.596;2023-02-25T08:02:38;2.30;99.90
21662;DHT22;10992;48.170;8.596;2023-02-25T08:05:06;2.20;99.90
21662;DHT22;10992;48.170;8.596;2023-02-25T08:07:33;2.10;99.90
21662;DHT22;10992;48.170;8.596;2023-02-25T08:10:00;2.00;99.90
21662;DHT22;10992;48.170;8.596;2023-02-25T08:12:27;2.00;99.90
21662;DHT22;10992;48.170;8.596;2023-02-25T08:14:54;2.20;99.90
21662;DHT22;10992;48.170;8.596;2023-02-25T08:17:22;2.20;99.90
21662;DHT22;10992;48.170;8.596;2023-02-25T08:19:50;2.20;99.90
21662;DHT22;10992;48.170;8.596;2023-02-25T08:22:17;2.20;99.90
21662;DHT22;10992;48.170;8.596;2023-02-25T08:24:44;2.20;99.90
21662;DHT22;10992;48.170;8.596;2023-02-25T08:27:11;2.20;99.90
21662;DHT22;10992;48.170;8.596;2023-02-25T08:29:38;2.60;99.90
21662;DHT22;10992;48.170;8.596;2023-02-25T08:32:05;3.10;99.90
21662;DHT22;10992;48.170;8.596;2023-02-25T08:34:32;3.50;99.90
21662;DHT22;10992;48.170;8.596;2023-02-25T08:36:59;4.90;99.90
21662;DHT22;10992;48.170;8.596;2023-02-25T08:39:26;5.80;99.90
21662;DHT22;10992;48.170;8.596;2023-02-25T08:41:54;7.20;99.90
21662;DHT22;10992;48.170;8.596;2023-02-25T08:44:21;9.00;99.90
21662;DHT22;10992;48.170;8.596;2023-02-25T08:46:48;9.20;99.90
21662;DHT22;10992;48.170;8.596;2023-02-25T08:49:15;8.80;99.90
21662;DHT22;10992;48.170;8.596;2023-02-25T08:51:42;8.30;99.90
21662;DHT22;10992;48.170;8.596;2023-02-25T08:54:12;8.10;99.90
21662;DHT22;10992;48.170;8.596;2023-02-25T08:56:40;6.80;99.90
21662;DHT22;10992;48.170;8.596;2023-02-25T08:59:11;6.20;99.90
21662;DHT22;10992;48.170;8.596;2023-02-25T09:01:39;6.50;99.90
21662;DHT22;10992;48.170;8.596;2023-02-25T09:04:21;5.80;99.90
21662;DHT22;10992;48.170;8.596;2023-02-25T09:06:49;5.60;99.90
21662;DHT22;10992;48.170;8.596;2023-02-25T09:09:18;5.70;99.90
21662;DHT22;10992;48.170;8.596;2023-02-25T09:11:47;6.50;99.90
21662;DHT22;10992;48.170;8.596;2023-02-25T09:14:14;6.80;99.90
21662;DHT22;10992;48.170;8.596;2023-02-25T09:16:41;6.90;99.90
21662;DHT22;10992;48.170;8.596;2023-02-25T09:19:08;7.00;99.90
21662;DHT22;10992;48.170;8.596;2023-02-25T09:21:38;7.60;99.90
21662;DHT22;10992;48.170;8.596;2023-02-25T09:24:09;8.30;99.90
21662;DHT22;10992;48.170;8.596;2023-02-25T09:26:36;8.60;99.90
21662;DHT22;10992;48.170;8.596;2023-02-25T09:29:04;7.40;99.90
21662;DHT22;10992;48.170;8.596;2023-02-25T09:31:31;7.50;99.90
21662;DHT22;10992;48.170;8.596;2023-02-25T09:34:02;8.20;99.90
21662;DHT22;10992;48.170;8.596;2023-02-25T09:36:30;9.10;99.90
21662;DHT22;10992;48.170;8.596;2023-02-25T09:39:00;8.10;99.90
21662;DHT22;10992;48.170;8.596;2023-02-25T09:41:42;8.40;99.90
21662;DHT22;10992;48.170;8.596;2023-02-25T09:44:28;7.60;99.90
21662;DHT22;10992;48.170;8.596;2023-02-25T09:47:02;6.60;99.90
21662;DHT22;10992;48.170;8.596;2023-02-25T09:49:41;5.30;99.90
21662;DHT22;10992;48.170;8.596;2023-02-25T09:52:44;4.90;99.90
21662;DHT22;10992;48.170;8.596;2023-02-25T09:55:20;4.40;99.90
21662;DHT22;10992;48.170;8.596;2023-02-25T10:03:34;6.50;99.90
21662;DHT22;10992;48.170;8.596;2023-02-25T10:09:03;6.40;99.90
21662;DHT22;10992;48.170;8.596;2023-02-25T10:17:25;6.70;99.90
21662;DHT22;10992;48.170;8.596;2023-02-25T10:23:26;7.50;99.90
21662;DHT22;10992;48.170;8.596;2023-02-25T10:26:01;8.40;99.90
21662;DHT22;10992;48.170;8.596;2023-02-25T10:28:30;9.10;99.90
21662;DHT22;10992;48.170;8.596;2023-02-25T10:31:11;10.10;99.90
21662;DHT22;10992;48.170;8.596;2023-02-25T10:33:41;10.10;99.90
21662;DHT22;10992;48.170;8.596;2023-02-25T10:36:29;9.70;99.90
21662;DHT22;10992;48.170;8.596;2023-02-25T10:38:56;10.10;99.90
21662;DHT22;10992;48.170;8.596;2023-02-25T10:41:25;9.40;99.90
21662;DHT22;10992;48.170;8.596;2023-02-25T10:43:56;10.00;99.90
21662;DHT22;10992;48.170;8.596;2023-02-25T10:49:19;11.00;99.90
21662;DHT22;10992;48.170;8.596;2023-02-25T10:54:50;8.50;99.90
21662;DHT22;10992;48.170;8.596;2023-02-25T10:57:23;9.30;99.90
21662;DHT22;10992;48.170;8.596;2023-02-25T10:59:59;9.00;99.90
21662;DHT22;10992;48.170;8.596;2023-02-25T11:02:29;8.80;99.90
21662;DHT22;10992;48.170;8.596;2023-02-25T11:04:57;8.80;99.90
21662;DHT22;10992;48.170;8.596;2023-02-25T11:10:12;8.80;99.90
21662;DHT22;10992;48.170;8.596;2023-02-25T11:12:51;7.70;99.90
21662;DHT22;10992;48.170;8.596;2023-02-25T11:15:38;7.70;99.90
21662;DHT22;10992;48.170;8.596;2023-02-25T11:20:55;7.30;99.90
21662;DHT22;10992;48.170;8.596;2023-02-25T11:23:33;6.60;99.90
21662;DHT22;10992;48.170;8.596;2023-02-25T11:26:02;5.90;99.90
21662;DHT22;10992;48.170;8.596;2023-02-25T11:28:36;5.50;99.90
21662;DHT22;10992;48.170;8.596;2023-02-25T11:31:17;5.10;99.90
21662;DHT22;10992;48.170;8.596;2023-02-25T11:33:53;6.00;99.90
21662;DHT22;10992;48.170;8.596;2023-02-25T11:36:27;7.10;99.90
21662;DHT22;10992;48.170;8.596;2023-02-25T11:39:20;7.40;99.90
21662;DHT22;10992;48.170;8.596;2023-02-25T11:42:35;6.60;99.90
21662;DHT22;10992;48.170;8.596;2023-02-25T11:44:41;6.40;99.90
21662;DHT22;10992;48.170;8.596;2023-02-25T11:49:52;6.70;99.90
21662;DHT22;10992;48.170;8.596;2023-02-25T11:52:34;6.80;99.90
21662;DHT22;10992;48.170;8.596;2023-02-25T11:58:26;5.80;99.90
21662;DHT22;10992;48.170;8.596;2023-02-25T12:00:57;4.80;99.90
21662;DHT22;10992;48.170;8.596;2023-02-25T12:04:04;4.70;99.90
21662;DHT22;10992;48.170;8.596;2023-02-25T12:21:18;2.90;99.90
21662;DHT22;10992;48.170;8.596;2023-02-25T12:24:35;3.10;99.90
21662;DHT22;10992;48.170;8.596;2023-02-25T12:27:30;3.20;99.90
21662;DHT22;10992;48.170;8.596;2023-02-25T12:30:15;3.50;99.90
21662;DHT22;10992;48.170;8.596;2023-02-25T12:41:28;3.90;99.90
21662;DHT22;10992;48.170;8.596;2023-02-25T12:58:02;3.70;99.90
21662;DHT22;10992;48.170;8.596;2023-02-25T13:01:09;3.70;99.90
21662;DHT22;10992;48.170;8.596;2023-02-25T13:06:59;3.30;99.90
21662;DHT22;10992;48.170;8.596;2023-02-25T13:12:42;3.60;99.90
21662;DHT22;10992;48.170;8.596;2023-02-25T13:15:17;3.50;99.90
21662;DHT22;10992;48.170;8.596;2023-02-25T13:23:37;3.90;99.90
21662;DHT22;10992;48.170;8.596;2023-02-25T13:26:31;4.50;99.90
21662;DHT22;10992;48.170;8.596;2023-02-25T13:43:06;4.70;99.90
21662;DHT22;10992;48.170;8.596;2023-02-25T14:16:30;6.50;99.90
21662;DHT22;10992;48.170;8.596;2023-02-25T14:21:52;6.40;99.90
21662;DHT22;10992;48.170;8.596;2023-02-25T14:27:26;5.80;99.90
21662;DHT22;10992;48.170;8.596;2023-02-25T14:32:43;6.20;99.90
21662;DHT22;10992;48.170;8.596;2023-02-25T14:38:10;7.30;99.90
21662;DHT22;10992;48.170;8.596;2023-02-25T14:43:34;6.70;99.90
21662;DHT22;10992;48.170;8.596;2023-02-25T14:52:10;6.20;99.90
21662;DHT22;10992;48.170;8.596;2023-02-25T15:14:39;3.90;99.90
21662;DHT22;10992;48.170;8.596;2023-02-25T15:17:43;3.90;99.90
21662;DHT22;10992;48.170;8.596;2023-02-25T15:20:32;3.90;99.90
21662;DHT22;10992;48.170;8.596;2023-02-25T15:23:15;3.80;99.90
21662;DHT22;10992;48.170;8.596;2023-02-25T15:37:21;3.40;99.90
21662;DHT22;10992;48.170;8.596;2023-02-25T15:39:51;3.40;99.90
21662;DHT22;10992;48.170;8.596;2023-02-25T16:06:11;2.60;99.90
21662;DHT22;10992;48.170;8.596;2023-02-25T16:13:52;2.20;99.90
21662;DHT22;10992;48.170;8.596;2023-02-25T16:16:21;2.20;99.90
21662;DHT22;10992;48.170;8.596;2023-02-25T16:18:50;2.10;99.90
21662;DHT22;10992;48.170;8.596;2023-02-25T16:21:42;2.00;99.90
21662;DHT22;10992;48.170;8.596;2023-02-25T16:24:11;1.90;99.90
21662;DHT22;10992;48.170;8.596;2023-02-25T16:26:43;1.80;99.90
21662;DHT22;10992;48.170;8.596;2023-02-25T16:34:55;1.80;99.90
21662;DHT22;10992;48.170;8.596;2023-02-25T16:37:59;1.80;99.90
21662;DHT22;10992;48.170;8.596;2023-02-25T16:40:33;1.90;99.90
21662;DHT22;10992;48.170;8.596;2023-02-25T16:43:01;2.00;99.90
21662;DHT22;10992;48.170;8.596;2023-02-25T16:45:33;1.90;99.90
21662;DHT22;10992;48.170;8.596;2023-02-25T16:48:06;1.90;99.90
21662;DHT22;10992;48.170;8.596;2023-02-25T16:50:34;1.80;99.90
21662;DHT22;10992;48.170;8.596;2023-02-25T16:53:02;1.80;99.90
21662;DHT22;10992;48.170;8.596;2023-02-25T16:55:37;1.90;99.90
21662;DHT22;10992;48.170;8.596;2023-02-25T16:58:21;1.90;99.90
21662;DHT22;10992;48.170;8.596;2023-02-25T17:00:59;1.80;99.90
21662;DHT22;10992;48.170;8.596;2023-02-25T17:03:30;1.70;99.90
21662;DHT22;10992;48.170;8.596;2023-02-25T17:06:10;1.30;99.90
21662;DHT22;10992;48.170;8.596;2023-02-25T17:08:45;1.30;99.90
21662;DHT22;10992;48.170;8.596;2023-02-25T17:11:17;1.10;99.90
21662;DHT22;10992;48.170;8.596;2023-02-25T17:13:45;0.90;99.90
21662;DHT22;10992;48.170;8.596;2023-02-25T17:16:40;0.80;99.90
21662;DHT22;10992;48.170;8.596;2023-02-25T17:19:09;0.60;99.90
21662;DHT22;10992;48.170;8.596;2023-02-25T17:21:42;0.50;99.90
21662;DHT22;10992;48.170;8.596;2023-02-25T17:24:16;0.40;99.90
21662;DHT22;10992;48.170;8.596;2023-02-25T17:26:46;0.40;99.90
21662;DHT22;10992;48.170;8.596;2023-02-25T17:29:15;0.30;99.90
21662;DHT22;10992;48.170;8.596;2023-02-25T17:31:47;0.30;99.90
21662;DHT22;10992;48.170;8.596;2023-02-25T17:34:34;0.40;99.90
21662;DHT22;10992;48.170;8.596;2023-02-25T17:37:04;0.40;99.90
21662;DHT22;10992;48.170;8.596;2023-02-25T17:39:32;0.40;99.90
21662;DHT22;10992;48.170;8.596;2023-02-25T17:42:00;0.50;99.90
21662;DHT22;10992;48.170;8.596;2023-02-25T17:47:07;0.60;99.90
21662;DHT22;10992;48.170;8.596;2023-02-25T17:49:36;0.60;99.90
21662;DHT22;10992;48.170;8.596;2023-02-25T17:52:18;0.50;99.90
21662;DHT22;10992;48.170;8.596;2023-02-25T17:54:50;0.50;99.90
21662;DHT22;10992;48.170;8.596;2023-02-25T17:57:22;0.40;99.90
21662;DHT22;10992;48.170;8.596;2023-02-25T17:59:55;0.40;99.90
21662;DHT22;10992;48.170;8.596;2023-02-25T18:02:28;0.50;99.90
21662;DHT22;10992;48.170;8.596;2023-02-25T18:05:13;0.60;99.90
21662;DHT22;10992;48.170;8.596;2023-02-25T18:13:02;0.70;99.90
21662;DHT22;10992;48.170;8.596;2023-02-25T18:15:31;0.70;99.90
21662;DHT22;10992;48.170;8.596;2023-02-25T18:18:03;0.70;99.90
21662;DHT22;10992;48.170;8.596;2023-02-25T18:20:39;0.90;99.90
21662;DHT22;10992;48.170;8.596;2023-02-25T18:25:43;0.90;99.90
21662;DHT22;10992;48.170;8.596;2023-02-25T18:28:17;0.90;99.90
21662;DHT22;10992;48.170;8.596;2023-02-25T18:30:48;0.80;99.90
21662;DHT22;10992;48.170;8.596;2023-02-25T18:33:16;0.80;99.90
21662;DHT22;10992;48.170;8.596;2023-02-25T18:35:45;0.80;99.90
21662;DHT22;10992;48.170;8.596;2023-02-25T18:38:21;0.80;99.90
21662;DHT22;10992;48.170;8.596;2023-02-25T18:40:49;0.80;99.90
21662;DHT22;10992;48.170;8.596;2023-02-25T18:43:19;0.70;99.90
21662;DHT22;10992;48.170;8.596;2023-02-25T18:45:47;0.60;99.90
21662;DHT22;10992;48.170;8.596;2023-02-25T18:48:14;0.60;99.90
21662;DHT22;10992;48.170;8.596;2023-02-25T18:50:41;0.60;99.90
21662;DHT22;10992;48.170;8.596;2023-02-25T18:53:14;0.70;99.90
21662;DHT22;10992;48.170;8.596;2023-02-25T18:55:42;0.60;99.90
21662;DHT22;10992;48.170;8.596;2023-02-25T18:58:12;0.60;99.90
21662;DHT22;10992;48.170;8.596;2023-02-25T19:00:40;0.60;99.90
21662;DHT22;10992;48.170;8.596;2023-02-25T19:03:16;0.60;99.90
21662;DHT22;10992;48.170;8.596;2023-02-25T19:05:44;0.60;99.90
21662;DHT22;10992;48.170;8.596;2023-02-25T19:08:12;0.60;99.90
21662;DHT22;10992;48.170;8.596;2023-02-25T19:10:39;0.60;99.90
21662;DHT22;10992;48.170;8.596;2023-02-25T19:15:40;0.60;99.90
21662;DHT22;10992;48.170;8.596;2023-02-25T19:18:12;0.60;99.90
21662;DHT22;10992;48.170;8.596;2023-02-25T19:20:39;0.80;99.90
21662;DHT22;10992;48.170;8.596;2023-02-25T19:23:10;0.80;99.90
21662;DHT22;10992;48.170;8.596;2023-02-25T19:25:38;0.70;99.90
21662;DHT22;10992;48.170;8.596;2023-02-25T19:28:07;0.70;99.90
21662;DHT22;10992;48.170;8.596;2023-02-25T19:30:40;0.70;99.90
21662;DHT22;10992;48.170;8.596;2023-02-25T19:33:10;0.60;99.90
21662;DHT22;10992;48.170;8.596;2023-02-25T19:35:39;0.40;99.90
21662;DHT22;10992;48.170;8.596;2023-02-25T19:38:08;0.30;99.90
21662;DHT22;10992;48.170;8.596;2023-02-25T19:40:36;0.20;99.90
21662;DHT22;10992;48.170;8.596;2023-02-25T19:43:04;0.10;99.90
21662;DHT22;10992;48.170;8.596;2023-02-25T19:45:32;-0.30;99.90
21662;DHT22;10992;48.170;8.596;2023-02-25T19:47:59;-0.30;99.90
21662;DHT22;10992;48.170;8.596;2023-02-25T19:50:26;-0.50;99.90
21662;DHT22;10992;48.170;8.596;2023-02-25T19:52:54;-0.60;99.90
21662;DHT22;10992;48.170;8.596;2023-02-25T19:55:21;-0.60;99.90
21662;DHT22;10992;48.170;8.596;2023-02-25T19:57:48;-0.70;99.90
21662;DHT22;10992;48.170;8.596;2023-02-25T20:00:21;-0.60;99.90
21662;DHT22;10992;48.170;8.596;2023-02-25T20:02:48;-0.60;99.90
21662;DHT22;10992;48.170;8.596;2023-02-25T20:05:17;-0.70;99.90
21662;DHT22;10992;48.170;8.596;2023-02-25T20:07:44;-0.70;99.90
21662;DHT22;10992;48.170;8.596;2023-02-25T20:10:12;-0.70;99.90
21662;DHT22;10992;48.170;8.596;2023-02-25T20:12:40;-0.70;99.90
21662;DHT22;10992;48.170;8.596;2023-02-25T20:15:09;-0.70;99.90
21662;DHT22;10992;48.170;8.596;2023-02-25T20:17:38;-0.70;99.90
21662;DHT22;10992;48.170;8.596;2023-02-25T20:20:06;-0.70;99.90
21662;DHT22;10992;48.170;8.596;2023-02-25T20:22:34;-0.70;99.90